createdAt,value
2024-01-28T00:00:13.243Z,103280.41
2024-01-28T00:02:41.717Z,103275.75
2024-01-28T00:05:12.809Z,103276.59
2024-01-28T00:07:41.511Z,103271.34
2024-01-28T00:10:10.733Z,103277.34
2024-01-28T00:12:39.653Z,103274.84
2024-01-28T00:15:08.962Z,103273.41
2024-01-28T00:17:38.772Z,103269.34
2024-01-28T00:20:08.518Z,103268.97
2024-01-28T00:22:36.061Z,103263.06
2024-01-28T00:25:05.395Z,103263.41
2024-01-28T00:27:33.819Z,103273.69
2024-01-28T00:30:02.408Z,103270.41
2024-01-28T00:32:30.816Z,103272.03
2024-01-28T00:35:00.697Z,103267.41
2024-01-28T00:37:29.221Z,103266.34
2024-01-28T00:39:57.766Z,103274.69
2024-01-28T00:42:26.552Z,103263.03
2024-01-28T00:44:54.935Z,103272.63
2024-01-28T00:47:23.462Z,103274.31
2024-01-28T00:49:52.091Z,103278.44
2024-01-28T00:52:21.988Z,103278.38
2024-01-28T00:54:50.587Z,103275.81
2024-01-28T00:57:19.053Z,103271.81
2024-01-28T00:59:47.430Z,103270.03
2024-01-28T01:02:15.826Z,103266.22
2024-01-28T01:04:44.492Z,103272.72
2024-01-28T01:07:13.089Z,103277.16
2024-01-28T01:09:43.174Z,103278.53
2024-01-28T01:12:11.658Z,103272.88
2024-01-28T01:14:40.113Z,103284.13
2024-01-28T01:17:08.516Z,103280.75
2024-01-28T01:19:36.969Z,103277.09
2024-01-28T01:22:05.719Z,103286.75
2024-01-28T01:24:34.237Z,103278.00
2024-01-28T01:27:04.537Z,103275.88
2024-01-28T01:29:32.983Z,103272.88
2024-01-28T01:32:01.552Z,103275.97
2024-01-28T01:34:30.061Z,103280.75
2024-01-28T01:36:58.556Z,103275.22
2024-01-28T01:39:26.952Z,103273.94
2024-01-28T01:41:55.350Z,103281.31
2024-01-28T01:44:31.523Z,103285.97
2024-01-28T01:47:00.475Z,103290.63
2024-01-28T01:49:29.885Z,103292.44
2024-01-28T01:51:58.293Z,103291.06
2024-01-28T01:54:27.002Z,103291.19
2024-01-28T01:56:55.569Z,103288.22
2024-01-28T01:59:26.364Z,103287.25
2024-01-28T02:01:56.366Z,103277.13
2024-01-28T02:04:25.236Z,103289.56
2024-01-28T02:06:54.026Z,103284.81
2024-01-28T02:09:22.747Z,103282.81
2024-01-28T02:11:52.241Z,103285.97
2024-01-28T02:14:25.890Z,103283.59
2024-01-28T02:16:54.328Z,103273.94
2024-01-28T02:19:22.749Z,103277.78
2024-01-28T02:21:51.207Z,103275.63
2024-01-28T02:24:21.081Z,103278.09
2024-01-28T02:26:49.479Z,103268.84
2024-01-28T02:29:17.815Z,103274.66
2024-01-28T02:31:47.148Z,103269.59
2024-01-28T02:34:15.846Z,103274.56
2024-01-28T02:36:44.403Z,103278.09
2024-01-28T02:39:12.866Z,103269.03
2024-01-28T02:41:42.667Z,103268.63
2024-01-28T02:44:11.036Z,103265.56
2024-01-28T02:46:39.407Z,103268.72
2024-01-28T02:49:07.952Z,103275.28
2024-01-28T02:51:36.419Z,103269.38
2024-01-28T02:54:05.123Z,103265.25
2024-01-28T02:56:33.535Z,103266.16
2024-01-28T02:59:04.583Z,103262.34
2024-01-28T03:01:33.020Z,103261.59
2024-01-28T03:04:01.635Z,103268.22
2024-01-28T03:06:30.160Z,103266.06
2024-01-28T03:08:58.655Z,103264.75
2024-01-28T03:11:27.007Z,103263.41
2024-01-28T03:13:55.395Z,103268.34
2024-01-28T03:16:25.863Z,103268.56
2024-01-28T03:18:54.261Z,103260.22
2024-01-28T03:21:22.702Z,103256.69
2024-01-28T03:23:51.082Z,103252.59
2024-01-28T03:26:20.605Z,103258.47
2024-01-28T03:28:49.065Z,103266.72
2024-01-28T03:31:19.224Z,103260.75
2024-01-28T03:33:49.118Z,103260.84
2024-01-28T03:36:18.116Z,103260.13
2024-01-28T03:38:46.494Z,103269.09
2024-01-28T03:41:15.739Z,103260.13
2024-01-28T03:43:46.446Z,103257.59
2024-01-28T03:46:14.971Z,103252.63
2024-01-28T03:48:43.559Z,103252.16
2024-01-28T03:51:14.692Z,103250.50
2024-01-28T03:53:43.215Z,103256.59
2024-01-28T03:56:11.625Z,103249.94
2024-01-28T03:58:40.072Z,103259.31
2024-01-28T04:01:09.507Z,103262.47
2024-01-28T04:03:38.689Z,103257.38
2024-01-28T04:06:07.299Z,103262.88
2024-01-28T04:08:37.097Z,103256.97
2024-01-28T04:11:06.973Z,103265.09
2024-01-28T04:13:35.377Z,103256.97
2024-01-28T04:16:03.750Z,103254.34
2024-01-28T04:18:32.283Z,103258.34
2024-01-28T04:21:00.731Z,103261.03
2024-01-28T04:23:29.095Z,103257.47
2024-01-28T04:25:58.815Z,103251.06
2024-01-28T04:28:27.196Z,103252.72
2024-01-28T04:30:55.642Z,103253.38
2024-01-28T04:33:24.207Z,103251.69
2024-01-28T04:35:53.046Z,103258.34
2024-01-28T04:38:21.443Z,103255.56
2024-01-28T04:40:52.510Z,103263.47
2024-01-28T04:43:23.196Z,103253.00
2024-01-28T04:45:51.594Z,103248.63
2024-01-28T04:48:21.082Z,103249.84
2024-01-28T04:50:49.493Z,103260.31
2024-01-28T04:53:18.380Z,103259.09
2024-01-28T04:55:46.867Z,103259.06
2024-01-28T04:58:15.210Z,103271.94
2024-01-28T05:00:45.007Z,103263.50
2024-01-28T05:03:13.826Z,103266.88
2024-01-28T05:05:42.426Z,103266.38
2024-01-28T05:08:10.958Z,103282.22
2024-01-28T05:10:40.350Z,103280.34
2024-01-28T05:13:08.844Z,103279.72
2024-01-28T05:15:37.258Z,103286.84
2024-01-28T05:18:07.560Z,103272.00
2024-01-28T05:20:36.028Z,103282.50
2024-01-28T05:23:04.437Z,103292.19
2024-01-28T05:25:33.362Z,103285.91
2024-01-28T05:28:01.808Z,103297.78
2024-01-28T05:30:30.923Z,103287.47
2024-01-28T05:32:59.809Z,103293.06
2024-01-28T05:35:31.748Z,103290.84
2024-01-28T05:38:00.641Z,103306.72
2024-01-28T05:40:29.004Z,103303.34
2024-01-28T05:42:57.319Z,103308.25
2024-01-28T05:45:25.854Z,103302.53
2024-01-28T05:47:54.253Z,103311.69
2024-01-28T05:50:22.589Z,103303.38
2024-01-28T05:52:52.323Z,103309.69
2024-01-28T05:55:20.672Z,103314.78
2024-01-28T05:57:49.101Z,103309.91
2024-01-28T06:00:18.501Z,103306.50
2024-01-28T06:02:46.929Z,103307.03
2024-01-28T06:05:15.489Z,103310.28
2024-01-28T06:07:43.894Z,103316.72
2024-01-28T06:10:14.143Z,103308.63
2024-01-28T06:12:42.614Z,103307.28
2024-01-28T06:15:11.929Z,103312.19
2024-01-28T06:17:40.560Z,103307.66
2024-01-28T06:20:10.266Z,103315.94
2024-01-28T06:22:38.796Z,103322.91
2024-01-28T06:25:08.915Z,103315.31
2024-01-28T06:27:38.665Z,103313.97
2024-01-28T06:30:08.459Z,103310.25
2024-01-28T06:32:37.554Z,103296.41
2024-01-28T06:35:06.541Z,103301.97
2024-01-28T06:37:34.931Z,103299.78
2024-01-28T06:40:03.918Z,103298.78
2024-01-28T06:42:33.307Z,103306.72
2024-01-28T06:45:03.320Z,103306.72
2024-01-28T06:47:31.845Z,103301.50
2024-01-28T06:50:00.420Z,103303.81
2024-01-28T06:52:28.767Z,103305.16
2024-01-28T06:54:57.342Z,103298.59
2024-01-28T06:57:25.863Z,103304.19
2024-01-28T06:59:54.290Z,103296.41
2024-01-28T07:02:26.163Z,103291.00
2024-01-28T07:04:54.573Z,103298.09
2024-01-28T07:07:24.099Z,103294.72
2024-01-28T07:09:52.578Z,103297.44
2024-01-28T07:12:21.065Z,103293.34
2024-01-28T07:14:49.462Z,103296.88
2024-01-28T07:17:17.930Z,103307.00
2024-01-28T07:19:47.652Z,103308.00
2024-01-28T07:22:16.108Z,103315.94
2024-01-28T07:24:44.494Z,103314.56
2024-01-28T07:27:12.880Z,103315.53
2024-01-28T07:29:43.186Z,103305.06
2024-01-28T07:32:14.649Z,103302.34
2024-01-28T07:34:43.100Z,103299.16
2024-01-28T07:37:12.851Z,103296.97
2024-01-28T07:39:41.281Z,103300.03
2024-01-28T07:42:09.690Z,103299.00
2024-01-28T07:44:38.051Z,103298.66
2024-01-28T07:47:06.496Z,103303.88
2024-01-28T07:49:34.982Z,103296.59
2024-01-28T07:52:03.436Z,103297.28
2024-01-28T07:54:33.216Z,103296.94
2024-01-28T07:57:01.564Z,103293.41
2024-01-28T07:59:29.946Z,103298.09
2024-01-28T08:01:58.609Z,103303.31
2024-01-28T08:04:29.415Z,103307.53
2024-01-28T08:06:57.864Z,103312.09
2024-01-28T08:09:26.369Z,103316.16
2024-01-28T08:11:56.115Z,103318.56
2024-01-28T08:14:28.561Z,103317.88
2024-01-28T08:16:57.347Z,103313.28
2024-01-28T08:19:25.971Z,103302.66
2024-01-28T08:21:54.657Z,103302.13
2024-01-28T08:24:23.084Z,103300.78
2024-01-28T08:26:51.691Z,103297.59
2024-01-28T08:29:21.450Z,103299.78
2024-01-28T08:31:49.854Z,103300.16
2024-01-28T08:34:18.284Z,103302.69
2024-01-28T08:36:46.754Z,103303.84
2024-01-28T08:39:15.561Z,103308.72
2024-01-28T08:41:44.324Z,103309.06
2024-01-28T08:44:12.988Z,103311.72
2024-01-28T08:46:42.802Z,103310.34
2024-01-28T08:49:11.295Z,103317.41
2024-01-28T08:51:39.813Z,103324.66
2024-01-28T08:54:08.317Z,103327.13
2024-01-28T08:56:36.756Z,103327.94
2024-01-28T08:59:05.152Z,103326.22
2024-01-28T09:01:33.574Z,103331.78
2024-01-28T09:04:03.685Z,103318.19
2024-01-28T09:06:32.489Z,103314.25
2024-01-28T09:09:04.713Z,103306.75
2024-01-28T09:11:33.482Z,103293.09
2024-01-28T09:14:02.415Z,103294.53
2024-01-28T09:16:30.839Z,103293.97
2024-01-28T09:18:59.476Z,103304.94
2024-01-28T09:21:29.371Z,103309.63
2024-01-28T09:23:58.169Z,103310.41
2024-01-28T09:26:26.980Z,103301.72
2024-01-28T09:28:55.828Z,103309.09
2024-01-28T09:31:24.324Z,103312.56
2024-01-28T09:33:52.914Z,103313.72
2024-01-28T09:36:21.375Z,103323.44
2024-01-28T09:38:51.085Z,103322.78
2024-01-28T09:41:33.618Z,103328.56
2024-01-28T09:44:02.043Z,103329.31
2024-01-28T09:46:31.147Z,103330.88
2024-01-28T09:49:01.458Z,103331.72
2024-01-28T09:51:30.386Z,103312.59
2024-01-28T09:54:00.796Z,103313.97
2024-01-28T09:56:29.710Z,103303.44
2024-01-28T09:58:58.302Z,103310.84
2024-01-28T10:01:27.902Z,103292.19
2024-01-28T10:03:56.753Z,103306.47
2024-01-28T10:06:25.915Z,103300.72
2024-01-28T10:08:54.422Z,103304.97
2024-01-28T10:11:24.221Z,103303.41
2024-01-28T10:13:54.480Z,103296.59
2024-01-28T10:16:25.186Z,103293.91
2024-01-28T10:18:53.796Z,103296.06
2024-01-28T10:21:22.367Z,103305.13
2024-01-28T10:23:50.780Z,103293.91
2024-01-28T10:26:19.279Z,103295.00
2024-01-28T10:28:49.105Z,103286.09
2024-01-28T10:31:18.671Z,103285.16
2024-01-28T10:33:47.313Z,103273.06
2024-01-28T10:36:18.721Z,103267.63
2024-01-28T10:38:48.137Z,103269.66
2024-01-28T10:41:18.499Z,103273.78
2024-01-28T10:43:58.246Z,103279.16
2024-01-28T10:46:35.083Z,103281.56
2024-01-28T10:49:06.367Z,103276.06
2024-01-28T10:51:37.193Z,103272.00
2024-01-28T10:54:06.066Z,103272.06
2024-01-28T10:56:34.627Z,103264.78
2024-01-28T10:59:04.708Z,103267.91
2024-01-28T11:01:36.021Z,103272.34
2024-01-28T11:04:06.132Z,103261.41
2024-01-28T11:06:34.889Z,103254.06
2024-01-28T11:09:04.495Z,103256.34
2024-01-28T11:11:33.012Z,103253.59
2024-01-28T11:14:09.294Z,103261.44
2024-01-28T11:16:39.466Z,103261.47
2024-01-28T11:19:10.961Z,103255.22
2024-01-28T11:21:40.122Z,103247.59
2024-01-28T11:24:10.637Z,103247.59
2024-01-28T11:26:42.589Z,103238.38
2024-01-28T11:29:14.454Z,103236.59
2024-01-28T11:31:43.891Z,103231.94
2024-01-28T11:34:16.527Z,103237.41
2024-01-28T11:36:47.189Z,103232.97
2024-01-28T11:39:17.247Z,103229.06
2024-01-28T11:41:46.994Z,103235.38
2024-01-28T11:44:16.839Z,103223.88
2024-01-28T11:46:46.387Z,103225.28
2024-01-28T11:49:14.953Z,103221.38
2024-01-28T11:51:43.441Z,103202.47
2024-01-28T11:54:11.954Z,103206.72
2024-01-28T11:56:43.202Z,103194.25
2024-01-28T11:59:12.607Z,103200.03
2024-01-28T12:01:42.581Z,103198.94
2024-01-28T12:04:11.320Z,103193.00
2024-01-28T12:06:40.230Z,103187.22
2024-01-28T12:09:08.740Z,103189.00
2024-01-28T12:11:38.622Z,103182.59
2024-01-28T12:14:07.550Z,103176.47
2024-01-28T12:16:37.529Z,103170.56
2024-01-28T12:19:08.507Z,103186.56
2024-01-28T12:21:39.656Z,103187.09
2024-01-28T12:24:12.026Z,103179.31
2024-01-28T12:26:44.629Z,103174.00
2024-01-28T12:29:14.112Z,103183.78
2024-01-28T12:31:42.655Z,103173.41
2024-01-28T12:34:17.932Z,103168.69
2024-01-28T12:36:46.789Z,103170.88
2024-01-28T12:39:15.434Z,103167.31
2024-01-28T12:41:44.042Z,103171.09
2024-01-28T12:44:12.399Z,103163.22
2024-01-28T12:46:40.867Z,103158.50
2024-01-28T12:49:12.705Z,103158.19
2024-01-28T12:51:44.727Z,103147.28
2024-01-28T12:54:13.955Z,103149.22
2024-01-28T12:56:42.552Z,103138.16
2024-01-28T12:59:10.990Z,103138.03
2024-01-28T13:01:39.562Z,103133.28
2024-01-28T13:04:08.345Z,103132.94
2024-01-28T13:06:37.019Z,103137.94
2024-01-28T13:09:10.415Z,103131.09
2024-01-28T13:11:39.232Z,103135.19
2024-01-28T13:14:07.804Z,103134.91
2024-01-28T13:16:37.809Z,103127.41
2024-01-28T13:19:06.599Z,103135.94
2024-01-28T13:21:35.364Z,103127.56
2024-01-28T13:24:05.924Z,103129.25
2024-01-28T13:26:35.761Z,103119.69
2024-01-28T13:29:04.556Z,103116.53
2024-01-28T13:31:32.964Z,103104.94
2024-01-28T13:34:01.463Z,103098.53
2024-01-28T13:36:30.062Z,103095.00
2024-01-28T13:38:58.727Z,103093.56
2024-01-28T13:41:27.083Z,103074.50
2024-01-28T13:43:56.836Z,103075.97
2024-01-28T13:46:25.317Z,103071.81
2024-01-28T13:48:54.209Z,103073.28
2024-01-28T13:51:24.898Z,103066.94
2024-01-28T13:53:53.398Z,103060.72
2024-01-28T13:56:22.554Z,103056.69
2024-01-28T13:58:51.026Z,103054.03
2024-01-28T14:01:20.930Z,103049.19
2024-01-28T14:03:49.567Z,103048.72
2024-01-28T14:06:17.170Z,103041.09
2024-01-28T14:08:45.735Z,103034.53
2024-01-28T14:11:14.658Z,103038.31
2024-01-28T14:13:43.082Z,103033.91
2024-01-28T14:16:11.521Z,103041.69
2024-01-28T14:18:41.347Z,103039.47
2024-01-28T14:21:09.804Z,103039.31
2024-01-28T14:23:39.213Z,103044.22
2024-01-28T14:26:07.611Z,103044.66
2024-01-28T14:28:36.040Z,103042.88
2024-01-28T14:31:04.695Z,103045.69
2024-01-28T14:33:33.214Z,103031.50
2024-01-28T14:36:03.363Z,103035.31
2024-01-28T14:38:31.782Z,103037.38
2024-01-28T14:41:00.158Z,103036.06
2024-01-28T14:43:28.585Z,103033.41
2024-01-28T14:46:00.093Z,103042.31
2024-01-28T14:48:29.093Z,103042.50
2024-01-28T14:50:57.986Z,103037.50
2024-01-28T14:53:27.945Z,103038.88
2024-01-28T14:55:56.470Z,103044.44
2024-01-28T14:58:24.865Z,103040.25
2024-01-28T15:00:53.572Z,103034.19
2024-01-28T15:03:22.147Z,103033.44
2024-01-28T15:05:50.750Z,103033.28
2024-01-28T15:08:19.128Z,103036.94
2024-01-28T15:10:48.990Z,103032.97
2024-01-28T15:13:17.407Z,103033.91
2024-01-28T15:15:45.878Z,103033.97
2024-01-28T15:18:14.584Z,103042.03
2024-01-28T15:20:43.102Z,103037.25
2024-01-28T15:23:11.958Z,103038.56
2024-01-28T15:25:40.680Z,103040.09
2024-01-28T15:28:17.786Z,103035.16
2024-01-28T15:30:54.411Z,103042.81
2024-01-28T15:33:24.581Z,103045.34
2024-01-28T15:35:53.814Z,103042.06
2024-01-28T15:38:22.442Z,103043.59
2024-01-28T15:40:50.862Z,103048.50
2024-01-28T15:43:20.663Z,103043.91
2024-01-28T15:45:51.513Z,103037.22
2024-01-28T15:48:20.689Z,103035.34
2024-01-28T15:50:49.298Z,103039.44
2024-01-28T15:53:17.713Z,103030.00
2024-01-28T15:55:46.177Z,103035.25
2024-01-28T15:58:14.905Z,103036.38
2024-01-28T16:00:44.735Z,103042.50
2024-01-28T16:03:13.421Z,103037.28
2024-01-28T16:05:42.353Z,103042.78
2024-01-28T16:08:13.333Z,103038.81
2024-01-28T16:10:41.778Z,103041.38
2024-01-28T16:13:10.465Z,103042.66
2024-01-28T16:15:39.335Z,103049.41
2024-01-28T16:18:09.756Z,103046.72
2024-01-28T16:20:38.105Z,103059.94
2024-01-28T16:23:06.920Z,103062.25
2024-01-28T16:25:35.388Z,103060.78
2024-01-28T16:28:04.321Z,103055.16
2024-01-28T16:30:32.890Z,103052.84
2024-01-28T16:33:01.289Z,103048.88
2024-01-28T16:35:33.369Z,103047.66
2024-01-28T16:38:01.722Z,103054.56
2024-01-28T16:40:30.102Z,103046.81
2024-01-28T16:43:02.422Z,103042.00
2024-01-28T16:45:30.923Z,103035.31
2024-01-28T16:48:00.077Z,103041.41
2024-01-28T16:50:28.614Z,103036.38
2024-01-28T16:52:59.831Z,103040.16
2024-01-28T16:55:31.778Z,103039.75
2024-01-28T16:58:01.809Z,103043.34
2024-01-28T17:00:30.346Z,103039.56
2024-01-28T17:02:58.978Z,103034.97
2024-01-28T17:05:28.557Z,103031.19
2024-01-28T17:07:58.508Z,103032.06
2024-01-28T17:10:29.698Z,103032.06
2024-01-28T17:13:01.517Z,103038.97
2024-01-28T17:15:31.883Z,103041.28
2024-01-28T17:18:00.502Z,103041.06
2024-01-28T17:20:29.031Z,103045.25
2024-01-28T17:22:59.115Z,103048.38
2024-01-28T17:25:27.564Z,103052.56
2024-01-28T17:27:56.009Z,103054.69
2024-01-28T17:30:24.759Z,103044.22
2024-01-28T17:32:53.191Z,103039.16
2024-01-28T17:35:21.771Z,103031.41
2024-01-28T17:37:50.290Z,103033.31
2024-01-28T17:40:20.140Z,103031.03
2024-01-28T17:42:48.614Z,103037.06
2024-01-28T17:45:17.878Z,103022.00
2024-01-28T17:47:48.094Z,103022.41
2024-01-28T17:50:16.989Z,103025.53
2024-01-28T17:52:45.762Z,103030.38
2024-01-28T17:55:14.492Z,103030.56
2024-01-28T17:57:44.288Z,103023.66
2024-01-28T18:00:13.586Z,103022.19
2024-01-28T18:02:42.114Z,103018.84
2024-01-28T18:05:11.165Z,103024.06
2024-01-28T18:07:39.832Z,103024.44
2024-01-28T18:10:09.345Z,103018.41
2024-01-28T18:12:38.268Z,103019.84
2024-01-28T18:15:09.818Z,103016.72
2024-01-28T18:17:38.587Z,103021.94
2024-01-28T18:20:07.866Z,103021.50
2024-01-28T18:22:38.081Z,103022.94
2024-01-28T18:25:07.240Z,103018.31
2024-01-28T18:27:36.373Z,103016.03
2024-01-28T18:30:05.501Z,103011.00
2024-01-28T18:32:35.326Z,103012.44
2024-01-28T18:35:05.798Z,103004.03
2024-01-28T18:37:34.979Z,103001.75
2024-01-28T18:40:04.911Z,102995.06
2024-01-28T18:42:33.516Z,102992.50
2024-01-28T18:45:01.937Z,103001.09
2024-01-28T18:47:30.394Z,103000.00
2024-01-28T18:50:00.431Z,102999.56
2024-01-28T18:52:29.460Z,103002.50
2024-01-28T18:54:58.046Z,103002.91
2024-01-28T18:57:26.558Z,102995.78
2024-01-28T18:59:55.064Z,102977.19
2024-01-28T19:02:23.477Z,102982.16
2024-01-28T19:04:51.929Z,102983.22
2024-01-28T19:07:21.736Z,102974.25
2024-01-28T19:09:50.246Z,102975.69
2024-01-28T19:12:19.267Z,102975.25
2024-01-28T19:14:48.367Z,102988.16
2024-01-28T19:17:19.000Z,102985.00
2024-01-28T19:19:48.508Z,102985.22
2024-01-28T19:22:17.102Z,102978.97
2024-01-28T19:24:46.934Z,102984.41
2024-01-28T19:27:15.463Z,102978.31
2024-01-28T19:29:45.504Z,102974.97
2024-01-28T19:32:14.017Z,102971.81
2024-01-28T19:34:42.645Z,102967.44
2024-01-28T19:37:11.107Z,102963.63
2024-01-28T19:39:41.057Z,102966.75
2024-01-28T19:42:11.193Z,102959.63
2024-01-28T19:44:39.634Z,102959.19
2024-01-28T19:47:09.567Z,102965.03
2024-01-28T19:49:38.271Z,102956.25
2024-01-28T19:52:07.767Z,102946.66
2024-01-28T19:54:36.356Z,102954.34
2024-01-28T19:57:05.145Z,102947.03
2024-01-28T19:59:35.027Z,102950.38
2024-01-28T20:02:03.483Z,102948.25
2024-01-28T20:04:31.992Z,102937.63
2024-01-28T20:07:00.473Z,102934.91
2024-01-28T20:09:29.020Z,102934.47
2024-01-28T20:11:58.414Z,102931.31
2024-01-28T20:14:26.814Z,102926.72
2024-01-28T20:16:56.619Z,102929.19
2024-01-28T20:19:25.143Z,102930.03
2024-01-28T20:21:54.479Z,102927.69
2024-01-28T20:24:23.341Z,102925.63
2024-01-28T20:26:51.844Z,102925.63
2024-01-28T20:29:20.798Z,102924.81
2024-01-28T20:31:49.263Z,102930.41
2024-01-28T20:34:20.683Z,102939.38
2024-01-28T20:36:49.674Z,102939.81
2024-01-28T20:39:18.152Z,102940.66
2024-01-28T20:41:48.551Z,102943.97
2024-01-28T20:44:17.008Z,102937.13
2024-01-28T20:46:45.359Z,102945.66
2024-01-28T20:49:13.840Z,102933.13
2024-01-28T20:51:43.953Z,102942.94
2024-01-28T20:54:15.007Z,102943.97
2024-01-28T20:56:43.462Z,102942.09
2024-01-28T20:59:12.225Z,102939.59
2024-01-28T21:01:40.566Z,102944.63
2024-01-28T21:04:09.153Z,102932.94
2024-01-28T21:06:37.631Z,102937.34
2024-01-28T21:09:07.651Z,102937.34
2024-01-28T21:11:36.031Z,102939.44
2024-01-28T21:14:04.933Z,102933.56
2024-01-28T21:16:33.521Z,102934.41
2024-01-28T21:19:01.969Z,102931.69
2024-01-28T21:23:59.021Z,102928.75
2024-01-28T21:26:28.789Z,102928.94
2024-01-28T21:28:57.279Z,102932.53
2024-01-28T21:31:25.729Z,102936.50
2024-01-28T21:33:55.143Z,102933.13
2024-01-28T21:36:24.130Z,102936.88
2024-01-28T21:38:52.664Z,102932.72
2024-01-28T21:41:21.184Z,102937.13
2024-01-28T21:43:50.988Z,102927.09
2024-01-28T21:46:19.559Z,102927.34
2024-01-28T21:48:48.021Z,102925.03
2024-01-28T21:51:18.718Z,102914.81
2024-01-28T21:53:49.109Z,102912.31
2024-01-28T21:56:17.577Z,102918.13
2024-01-28T21:58:45.966Z,102906.44
2024-01-28T22:01:15.828Z,102904.56
2024-01-28T22:03:45.482Z,102903.94
2024-01-28T22:06:13.912Z,102908.38
2024-01-28T22:08:42.344Z,102908.94
2024-01-28T22:11:10.853Z,102901.84
2024-01-28T22:13:39.351Z,102905.75
2024-01-28T22:16:08.349Z,102904.28
2024-01-28T22:18:39.088Z,102905.69
2024-01-28T22:21:07.533Z,102907.13
2024-01-28T22:23:35.890Z,102902.81
2024-01-28T22:26:04.602Z,102911.78
2024-01-28T22:28:33.763Z,102902.81
2024-01-28T22:31:02.196Z,102897.13
2024-01-28T22:33:30.799Z,102895.25
2024-01-28T22:36:00.603Z,102893.78
2024-01-28T22:38:29.013Z,102894.84
2024-01-28T22:40:57.455Z,102888.97
2024-01-28T22:43:26.682Z,102889.56
2024-01-28T22:45:55.332Z,102884.53
2024-01-28T22:48:23.881Z,102884.53
2024-01-28T22:50:52.560Z,102873.22
2024-01-28T22:53:22.375Z,102881.53
2024-01-28T22:55:50.724Z,102873.16
2024-01-28T22:58:19.083Z,102866.28
2024-01-28T23:00:48.712Z,102866.69
2024-01-28T23:03:18.598Z,102866.84
2024-01-28T23:05:47.095Z,102867.28
2024-01-28T23:08:15.702Z,102859.69
2024-01-28T23:10:45.488Z,102861.53
2024-01-28T23:13:14.145Z,102861.72
2024-01-28T23:15:42.658Z,102860.44
2024-01-28T23:18:11.353Z,102861.69
2024-01-28T23:20:39.814Z,102864.34
2024-01-28T23:23:08.212Z,102863.03
2024-01-28T23:25:36.569Z,102854.09
2024-01-28T23:28:06.710Z,102859.13
2024-01-28T23:30:36.449Z,102858.00
2024-01-28T23:33:05.732Z,102857.97
2024-01-28T23:35:34.144Z,102856.47
2024-01-28T23:38:02.538Z,102854.81
2024-01-28T23:40:31.029Z,102860.59
2024-01-28T23:43:00.930Z,102856.22
2024-01-28T23:45:31.001Z,102865.38
2024-01-28T23:47:59.578Z,102871.00
2024-01-28T23:50:27.931Z,102855.13
2024-01-28T23:52:56.739Z,102862.63
2024-01-28T23:55:25.111Z,102853.00
2024-01-28T23:57:53.546Z,102856.28
